Aeroporto :
LOGIN :

Iscrizione | Disclaimer

   EN    FR    IT 

 










Sommario :    VFR   VFR Marginale   IFR   IFR Intensivo   IFR Molto Intensivo
Visibilità : 
Base nubi : 
>= 8 km
>= 3000ft
5 / 8 km
1000 / 3000 ft
1500m / 5 km
500 / 1000 ft
800 / 1500m
200 / 500 ft
< 800m
< 200 ft
Simboli :   Temporali  Nebbia  Neve Forte  Precipitazioni Forti  Vento > 20 kt
SIGMETs :   Varie  Temporali  Ghiacco  Turbolenza  Onda orograficha  Ceneri Vulcaniche






- Altitudine del aeroporto : 59 ft
- Codice IATA : TSF


LIPH - Treviso

ULTIMO METAR :
  • 040420Z AUTO VRB02KT 4500 BR OVC024/// 04/04 Q1004

METARs OBSOLETI :
  • 040350Z AUTO 24004KT 4000 1800E BR BKN031 04/03 Q1004
  • 040320Z AUTO 24001KT 4200 BR BKN020/// BKN031/// 04/04 Q1004
  • 040250Z AUTO 21002KT 3200 BR BKN020/// OVC030/// 04/03 Q1004
  • 040220Z AUTO 25003KT 4400 BR SCT020/// OVC030/// 04/04 Q1004
  • 040150Z AUTO 21002KT 3700 BR BKN021/// BKN076/// 04/03 Q1005

TAF TAF LIPH
Valido dal 04 a 00 ore il 05 a 00 ore UTC


032300Z 0400/0424 VRB05KT 6000 BKN020
TEMPO 0400/0406 1500 BCFG
TEMPO 0412/0424 4000 RA
BECMG 0415/0417 15010KT



MetMap, La meteo Aeronautica in un colpo d'occhio ! - Copyright ORBIFLY Dicembre 2007 - Disclaimer

ORBIFLY MET'MAP TEAM :

Programmazione e sviluppo : Alexandra Zaïnal
Concezione : Baudouin d'Aumeries
Aiuto per la programmazione : Marc-Olivier Méhu
Supporto tecnico e logistico : Manuel Goepfert
Aiuto per la traduzione : Arnaldo La Scala

Contatto : metmap@orbifly.com




FONTI E CREDITI :

   NOAA